sensor_id;sensor_type;location;lat;lon;timestamp;P1;durP1;ratioP1;P2;durP2;ratioP2
12212;SDS011;6169;44.158;22.788;2023-05-19T00:00:02;16.58;;;11.20;;
12212;SDS011;6169;44.158;22.788;2023-05-19T00:05:06;15.23;;;9.77;;
12212;SDS011;6169;44.158;22.788;2023-05-19T00:10:11;19.02;;;11.25;;
12212;SDS011;6169;44.158;22.788;2023-05-19T00:15:15;16.52;;;10.93;;
12212;SDS011;6169;44.158;22.788;2023-05-19T00:20:18;17.70;;;12.48;;
12212;SDS011;6169;44.158;22.788;2023-05-19T00:25:20;17.58;;;10.50;;
12212;SDS011;6169;44.158;22.788;2023-05-19T00:30:24;17.20;;;10.52;;
12212;SDS011;6169;44.158;22.788;2023-05-19T00:35:26;15.15;;;10.48;;
12212;SDS011;6169;44.158;22.788;2023-05-19T00:40:28;14.85;;;11.05;;
12212;SDS011;6169;44.158;22.788;2023-05-19T00:45:34;17.13;;;10.20;;
12212;SDS011;6169;44.158;22.788;2023-05-19T00:50:36;16.35;;;10.90;;
12212;SDS011;6169;44.158;22.788;2023-05-19T00:55:39;22.50;;;11.45;;
12212;SDS011;6169;44.158;22.788;2023-05-19T01:00:43;14.05;;;10.73;;
12212;SDS011;6169;44.158;22.788;2023-05-19T01:05:45;17.95;;;11.82;;
12212;SDS011;6169;44.158;22.788;2023-05-19T01:10:49;16.23;;;11.13;;
12212;SDS011;6169;44.158;22.788;2023-05-19T01:15:58;16.65;;;12.20;;
12212;SDS011;6169;44.158;22.788;2023-05-19T01:21:20;18.08;;;11.10;;
12212;SDS011;6169;44.158;22.788;2023-05-19T01:26:51;15.77;;;11.32;;
12212;SDS011;6169;44.158;22.788;2023-05-19T01:32:07;16.42;;;9.13;;
12212;SDS011;6169;44.158;22.788;2023-05-19T01:37:12;16.50;;;9.90;;
12212;SDS011;6169;44.158;22.788;2023-05-19T01:42:15;20.65;;;10.25;;
12212;SDS011;6169;44.158;22.788;2023-05-19T01:47:20;12.93;;;9.80;;
12212;SDS011;6169;44.158;22.788;2023-05-19T01:52:22;18.00;;;10.30;;
12212;SDS011;6169;44.158;22.788;2023-05-19T01:57:27;16.77;;;10.82;;
12212;SDS011;6169;44.158;22.788;2023-05-19T02:02:42;16.30;;;9.38;;
12212;SDS011;6169;44.158;22.788;2023-05-19T02:07:57;19.58;;;10.38;;
12212;SDS011;6169;44.158;22.788;2023-05-19T02:13:06;17.60;;;10.05;;
12212;SDS011;6169;44.158;22.788;2023-05-19T02:18:13;14.60;;;9.82;;
12212;SDS011;6169;44.158;22.788;2023-05-19T02:23:17;14.77;;;9.90;;
12212;SDS011;6169;44.158;22.788;2023-05-19T02:28:19;13.90;;;9.77;;
12212;SDS011;6169;44.158;22.788;2023-05-19T02:33:22;18.13;;;9.93;;
12212;SDS011;6169;44.158;22.788;2023-05-19T02:38:25;16.27;;;10.27;;
12212;SDS011;6169;44.158;22.788;2023-05-19T02:43:27;22.48;;;10.48;;
12212;SDS011;6169;44.158;22.788;2023-05-19T02:48:31;15.60;;;10.57;;
12212;SDS011;6169;44.158;22.788;2023-05-19T02:53:33;15.23;;;10.23;;
12212;SDS011;6169;44.158;22.788;2023-05-19T02:58:36;16.52;;;10.13;;
12212;SDS011;6169;44.158;22.788;2023-05-19T03:03:40;18.92;;;11.32;;
12212;SDS011;6169;44.158;22.788;2023-05-19T03:08:42;16.35;;;9.32;;
12212;SDS011;6169;44.158;22.788;2023-05-19T03:13:45;14.50;;;10.95;;
12212;SDS011;6169;44.158;22.788;2023-05-19T03:18:48;14.15;;;9.70;;
12212;SDS011;6169;44.158;22.788;2023-05-19T03:23:51;14.50;;;9.32;;
12212;SDS011;6169;44.158;22.788;2023-05-19T03:28:53;15.88;;;9.23;;
12212;SDS011;6169;44.158;22.788;2023-05-19T03:33:57;15.98;;;10.02;;
12212;SDS011;6169;44.158;22.788;2023-05-19T03:38:59;19.23;;;8.55;;
12212;SDS011;6169;44.158;22.788;2023-05-19T03:44:01;14.30;;;10.02;;
12212;SDS011;6169;44.158;22.788;2023-05-19T03:49:05;19.83;;;10.20;;
12212;SDS011;6169;44.158;22.788;2023-05-19T03:54:08;16.08;;;9.80;;
12212;SDS011;6169;44.158;22.788;2023-05-19T03:59:10;16.38;;;10.48;;
12212;SDS011;6169;44.158;22.788;2023-05-19T04:04:14;13.73;;;9.05;;
12212;SDS011;6169;44.158;22.788;2023-05-19T04:09:16;12.88;;;9.20;;
12212;SDS011;6169;44.158;22.788;2023-05-19T04:14:18;12.45;;;8.55;;
12212;SDS011;6169;44.158;22.788;2023-05-19T04:19:22;12.07;;;9.15;;
12212;SDS011;6169;44.158;22.788;2023-05-19T04:24:24;13.98;;;9.30;;
12212;SDS011;6169;44.158;22.788;2023-05-19T04:29:26;10.30;;;8.77;;
12212;SDS011;6169;44.158;22.788;2023-05-19T04:34:30;11.80;;;8.32;;
12212;SDS011;6169;44.158;22.788;2023-05-19T04:39:33;12.25;;;9.50;;
12212;SDS011;6169;44.158;22.788;2023-05-19T04:44:38;12.68;;;8.60;;
12212;SDS011;6169;44.158;22.788;2023-05-19T04:49:41;15.00;;;8.75;;
12212;SDS011;6169;44.158;22.788;2023-05-19T04:54:44;14.23;;;9.30;;
12212;SDS011;6169;44.158;22.788;2023-05-19T04:59:46;13.68;;;8.77;;
12212;SDS011;6169;44.158;22.788;2023-05-19T05:04:50;13.63;;;8.93;;
12212;SDS011;6169;44.158;22.788;2023-05-19T05:09:53;20.02;;;9.93;;
12212;SDS011;6169;44.158;22.788;2023-05-19T05:14:55;9.88;;;8.65;;
12212;SDS011;6169;44.158;22.788;2023-05-19T05:20:01;17.45;;;10.30;;
12212;SDS011;6169;44.158;22.788;2023-05-19T05:25:05;23.27;;;10.27;;
12212;SDS011;6169;44.158;22.788;2023-05-19T05:30:09;20.08;;;10.68;;
12212;SDS011;6169;44.158;22.788;2023-05-19T05:35:13;15.15;;;10.30;;
12212;SDS011;6169;44.158;22.788;2023-05-19T05:40:15;16.35;;;9.75;;
12212;SDS011;6169;44.158;22.788;2023-05-19T05:45:18;14.40;;;9.48;;
12212;SDS011;6169;44.158;22.788;2023-05-19T05:50:22;12.05;;;8.50;;
12212;SDS011;6169;44.158;22.788;2023-05-19T05:55:25;11.93;;;8.75;;
12212;SDS011;6169;44.158;22.788;2023-05-19T06:00:27;12.52;;;9.15;;
12212;SDS011;6169;44.158;22.788;2023-05-19T06:05:31;12.98;;;10.00;;
12212;SDS011;6169;44.158;22.788;2023-05-19T06:10:33;10.35;;;7.63;;
12212;SDS011;6169;44.158;22.788;2023-05-19T06:15:37;12.32;;;7.32;;
12212;SDS011;6169;44.158;22.788;2023-05-19T06:20:41;10.70;;;8.25;;
12212;SDS011;6169;44.158;22.788;2023-05-19T06:25:44;11.00;;;8.35;;
12212;SDS011;6169;44.158;22.788;2023-05-19T06:30:46;10.77;;;7.63;;
12212;SDS011;6169;44.158;22.788;2023-05-19T06:35:50;10.77;;;7.95;;
12212;SDS011;6169;44.158;22.788;2023-05-19T06:40:52;14.32;;;7.28;;
12212;SDS011;6169;44.158;22.788;2023-05-19T06:45:54;11.35;;;6.95;;
12212;SDS011;6169;44.158;22.788;2023-05-19T06:50:58;8.55;;;6.82;;
12212;SDS011;6169;44.158;22.788;2023-05-19T06:56:00;8.38;;;5.35;;
12212;SDS011;6169;44.158;22.788;2023-05-19T07:01:02;6.93;;;5.95;;
12212;SDS011;6169;44.158;22.788;2023-05-19T07:06:06;7.47;;;5.95;;
12212;SDS011;6169;44.158;22.788;2023-05-19T07:11:09;7.93;;;5.72;;
12212;SDS011;6169;44.158;22.788;2023-05-19T07:16:11;7.20;;;5.40;;
12212;SDS011;6169;44.158;22.788;2023-05-19T07:21:15;7.35;;;6.50;;
12212;SDS011;6169;44.158;22.788;2023-05-19T07:26:17;6.82;;;5.65;;
12212;SDS011;6169;44.158;22.788;2023-05-19T07:31:20;12.55;;;6.22;;
12212;SDS011;6169;44.158;22.788;2023-05-19T07:36:23;7.13;;;5.88;;
12212;SDS011;6169;44.158;22.788;2023-05-19T07:41:26;7.07;;;5.90;;
12212;SDS011;6169;44.158;22.788;2023-05-19T07:46:28;9.10;;;5.50;;
12212;SDS011;6169;44.158;22.788;2023-05-19T07:51:32;12.35;;;7.35;;
12212;SDS011;6169;44.158;22.788;2023-05-19T07:56:34;10.60;;;6.88;;
12212;SDS011;6169;44.158;22.788;2023-05-19T08:01:36;8.48;;;6.30;;
12212;SDS011;6169;44.158;22.788;2023-05-19T08:06:40;8.18;;;6.32;;
12212;SDS011;6169;44.158;22.788;2023-05-19T08:11:43;9.45;;;6.72;;
12212;SDS011;6169;44.158;22.788;2023-05-19T08:16:46;9.40;;;7.18;;
12212;SDS011;6169;44.158;22.788;2023-05-19T08:21:49;7.03;;;5.68;;
12212;SDS011;6169;44.158;22.788;2023-05-19T08:26:51;9.82;;;7.15;;
12212;SDS011;6169;44.158;22.788;2023-05-19T08:31:53;7.95;;;6.75;;
12212;SDS011;6169;44.158;22.788;2023-05-19T08:36:59;11.27;;;6.97;;
12212;SDS011;6169;44.158;22.788;2023-05-19T08:42:01;9.50;;;7.60;;
12212;SDS011;6169;44.158;22.788;2023-05-19T08:47:03;9.98;;;8.98;;
12212;SDS011;6169;44.158;22.788;2023-05-19T08:52:16;10.07;;;8.02;;
12212;SDS011;6169;44.158;22.788;2023-05-19T08:57:25;13.00;;;7.35;;
12212;SDS011;6169;44.158;22.788;2023-05-19T09:02:29;10.65;;;8.00;;
12212;SDS011;6169;44.158;22.788;2023-05-19T09:07:32;15.98;;;8.77;;
12212;SDS011;6169;44.158;22.788;2023-05-19T09:12:37;13.88;;;8.75;;
12212;SDS011;6169;44.158;22.788;2023-05-19T09:17:39;15.50;;;8.90;;
12212;SDS011;6169;44.158;22.788;2023-05-19T09:22:45;9.65;;;7.20;;
12212;SDS011;6169;44.158;22.788;2023-05-19T09:27:47;13.57;;;7.53;;
12212;SDS011;6169;44.158;22.788;2023-05-19T09:32:50;9.32;;;8.32;;
12212;SDS011;6169;44.158;22.788;2023-05-19T09:37:54;12.00;;;7.45;;
12212;SDS011;6169;44.158;22.788;2023-05-19T09:42:56;8.15;;;7.07;;
12212;SDS011;6169;44.158;22.788;2023-05-19T09:47:58;8.70;;;6.85;;
12212;SDS011;6169;44.158;22.788;2023-05-19T09:53:06;13.93;;;7.85;;
12212;SDS011;6169;44.158;22.788;2023-05-19T09:58:08;8.32;;;6.68;;
12212;SDS011;6169;44.158;22.788;2023-05-19T10:03:10;9.43;;;8.43;;
12212;SDS011;6169;44.158;22.788;2023-05-19T10:08:15;10.23;;;8.15;;
12212;SDS011;6169;44.158;22.788;2023-05-19T10:13:18;9.75;;;6.85;;
12212;SDS011;6169;44.158;22.788;2023-05-19T10:18:21;9.25;;;7.07;;
12212;SDS011;6169;44.158;22.788;2023-05-19T10:23:27;10.23;;;7.13;;
12212;SDS011;6169;44.158;22.788;2023-05-19T10:28:30;8.38;;;7.57;;
12212;SDS011;6169;44.158;22.788;2023-05-19T10:33:40;11.32;;;7.55;;
12212;SDS011;6169;44.158;22.788;2023-05-19T10:38:52;7.88;;;7.05;;
12212;SDS011;6169;44.158;22.788;2023-05-19T10:44:00;8.48;;;7.55;;
12212;SDS011;6169;44.158;22.788;2023-05-19T10:49:10;8.18;;;7.38;;
12212;SDS011;6169;44.158;22.788;2023-05-19T10:59:42;9.45;;;7.32;;
12212;SDS011;6169;44.158;22.788;2023-05-19T11:04:45;9.75;;;7.82;;
12212;SDS011;6169;44.158;22.788;2023-05-19T11:09:51;11.02;;;6.93;;
12212;SDS011;6169;44.158;22.788;2023-05-19T11:14:54;10.43;;;7.05;;
12212;SDS011;6169;44.158;22.788;2023-05-19T11:19:59;9.32;;;7.45;;
12212;SDS011;6169;44.158;22.788;2023-05-19T11:25:04;10.20;;;7.15;;
12212;SDS011;6169;44.158;22.788;2023-05-19T11:30:08;8.93;;;6.78;;
12212;SDS011;6169;44.158;22.788;2023-05-19T11:35:14;10.02;;;7.78;;
12212;SDS011;6169;44.158;22.788;2023-05-19T11:40:22;11.45;;;7.07;;
12212;SDS011;6169;44.158;22.788;2023-05-19T11:45:24;10.10;;;6.75;;
12212;SDS011;6169;44.158;22.788;2023-05-19T11:50:27;8.52;;;7.63;;
12212;SDS011;6169;44.158;22.788;2023-05-19T11:55:30;12.10;;;7.90;;
12212;SDS011;6169;44.158;22.788;2023-05-19T12:00:34;9.18;;;6.72;;
12212;SDS011;6169;44.158;22.788;2023-05-19T12:05:41;9.48;;;6.97;;
12212;SDS011;6169;44.158;22.788;2023-05-19T12:10:48;11.45;;;7.00;;
12212;SDS011;6169;44.158;22.788;2023-05-19T12:15:50;11.73;;;7.07;;
12212;SDS011;6169;44.158;22.788;2023-05-19T12:20:53;8.80;;;7.05;;
12212;SDS011;6169;44.158;22.788;2023-05-19T12:25:57;10.38;;;6.95;;
12212;SDS011;6169;44.158;22.788;2023-05-19T12:31:00;8.23;;;7.15;;
12212;SDS011;6169;44.158;22.788;2023-05-19T12:36:03;9.38;;;7.25;;
12212;SDS011;6169;44.158;22.788;2023-05-19T12:41:10;9.95;;;7.57;;
12212;SDS011;6169;44.158;22.788;2023-05-19T12:46:13;10.68;;;7.15;;
12212;SDS011;6169;44.158;22.788;2023-05-19T12:51:16;13.05;;;7.28;;
12212;SDS011;6169;44.158;22.788;2023-05-19T12:56:20;10.77;;;7.40;;
12212;SDS011;6169;44.158;22.788;2023-05-19T13:01:27;21.50;;;16.05;;
12212;SDS011;6169;44.158;22.788;2023-05-19T13:06:30;7.40;;;6.63;;
12212;SDS011;6169;44.158;22.788;2023-05-19T13:11:34;10.88;;;7.85;;
12212;SDS011;6169;44.158;22.788;2023-05-19T13:16:36;7.85;;;6.57;;
12212;SDS011;6169;44.158;22.788;2023-05-19T13:21:39;7.55;;;6.05;;
12212;SDS011;6169;44.158;22.788;2023-05-19T13:26:43;7.57;;;6.38;;
12212;SDS011;6169;44.158;22.788;2023-05-19T13:31:45;6.38;;;5.75;;
12212;SDS011;6169;44.158;22.788;2023-05-19T13:36:47;7.05;;;5.68;;
12212;SDS011;6169;44.158;22.788;2023-05-19T13:41:51;7.88;;;5.63;;
12212;SDS011;6169;44.158;22.788;2023-05-19T13:46:53;8.35;;;6.53;;
12212;SDS011;6169;44.158;22.788;2023-05-19T13:51:56;10.02;;;7.78;;
12212;SDS011;6169;44.158;22.788;2023-05-19T13:57:00;6.20;;;5.38;;
12212;SDS011;6169;44.158;22.788;2023-05-19T14:02:02;8.90;;;5.15;;
12212;SDS011;6169;44.158;22.788;2023-05-19T14:07:05;8.00;;;6.22;;
12212;SDS011;6169;44.158;22.788;2023-05-19T14:12:10;15.23;;;11.48;;
12212;SDS011;6169;44.158;22.788;2023-05-19T14:17:13;16.00;;;10.93;;
12212;SDS011;6169;44.158;22.788;2023-05-19T14:22:15;8.63;;;6.32;;
12212;SDS011;6169;44.158;22.788;2023-05-19T14:27:20;10.13;;;6.43;;
12212;SDS011;6169;44.158;22.788;2023-05-19T14:32:22;12.13;;;9.98;;
12212;SDS011;6169;44.158;22.788;2023-05-19T14:37:24;8.60;;;5.95;;
12212;SDS011;6169;44.158;22.788;2023-05-19T14:42:29;6.70;;;5.78;;
12212;SDS011;6169;44.158;22.788;2023-05-19T14:47:31;6.35;;;5.28;;
12212;SDS011;6169;44.158;22.788;2023-05-19T14:52:34;10.77;;;6.30;;
12212;SDS011;6169;44.158;22.788;2023-05-19T14:57:38;18.05;;;14.20;;
12212;SDS011;6169;44.158;22.788;2023-05-19T15:02:40;10.13;;;6.18;;
12212;SDS011;6169;44.158;22.788;2023-05-19T15:07:42;9.07;;;7.93;;
12212;SDS011;6169;44.158;22.788;2023-05-19T15:12:46;9.73;;;6.82;;
12212;SDS011;6169;44.158;22.788;2023-05-19T15:17:48;22.10;;;13.32;;
12212;SDS011;6169;44.158;22.788;2023-05-19T15:22:50;22.77;;;17.00;;
12212;SDS011;6169;44.158;22.788;2023-05-19T15:27:54;14.30;;;10.38;;
12212;SDS011;6169;44.158;22.788;2023-05-19T15:32:56;9.88;;;6.80;;
12212;SDS011;6169;44.158;22.788;2023-05-19T15:37:58;8.07;;;5.30;;
12212;SDS011;6169;44.158;22.788;2023-05-19T15:43:06;9.02;;;6.32;;
12212;SDS011;6169;44.158;22.788;2023-05-19T15:48:09;14.35;;;10.70;;
12212;SDS011;6169;44.158;22.788;2023-05-19T15:53:11;8.68;;;6.60;;
12212;SDS011;6169;44.158;22.788;2023-05-19T15:58:15;9.00;;;6.85;;
12212;SDS011;6169;44.158;22.788;2023-05-19T16:03:17;7.03;;;4.85;;
12212;SDS011;6169;44.158;22.788;2023-05-19T16:08:21;5.75;;;4.30;;
12212;SDS011;6169;44.158;22.788;2023-05-19T16:13:25;8.73;;;5.90;;
12212;SDS011;6169;44.158;22.788;2023-05-19T16:18:29;10.05;;;8.00;;
12212;SDS011;6169;44.158;22.788;2023-05-19T16:23:31;10.45;;;4.57;;
12212;SDS011;6169;44.158;22.788;2023-05-19T16:28:35;7.85;;;5.68;;
12212;SDS011;6169;44.158;22.788;2023-05-19T16:33:37;5.05;;;4.55;;
12212;SDS011;6169;44.158;22.788;2023-05-19T16:38:40;6.88;;;5.20;;
12212;SDS011;6169;44.158;22.788;2023-05-19T16:43:44;6.18;;;4.72;;
12212;SDS011;6169;44.158;22.788;2023-05-19T16:48:46;6.22;;;4.85;;
12212;SDS011;6169;44.158;22.788;2023-05-19T16:53:48;8.50;;;5.50;;
12212;SDS011;6169;44.158;22.788;2023-05-19T16:58:52;5.90;;;5.28;;
12212;SDS011;6169;44.158;22.788;2023-05-19T17:03:54;8.93;;;5.85;;
12212;SDS011;6169;44.158;22.788;2023-05-19T17:08:56;8.63;;;5.25;;
12212;SDS011;6169;44.158;22.788;2023-05-19T17:14:00;7.00;;;6.03;;
12212;SDS011;6169;44.158;22.788;2023-05-19T17:19:06;6.30;;;4.72;;
12212;SDS011;6169;44.158;22.788;2023-05-19T17:24:09;10.13;;;5.50;;
12212;SDS011;6169;44.158;22.788;2023-05-19T17:29:13;11.57;;;5.88;;
12212;SDS011;6169;44.158;22.788;2023-05-19T17:34:16;8.63;;;6.40;;
12212;SDS011;6169;44.158;22.788;2023-05-19T17:39:18;7.38;;;5.20;;
12212;SDS011;6169;44.158;22.788;2023-05-19T17:44:22;5.43;;;4.85;;
12212;SDS011;6169;44.158;22.788;2023-05-19T17:49:24;10.50;;;6.32;;
12212;SDS011;6169;44.158;22.788;2023-05-19T17:54:27;9.50;;;6.05;;
12212;SDS011;6169;44.158;22.788;2023-05-19T17:59:31;10.15;;;7.40;;
12212;SDS011;6169;44.158;22.788;2023-05-19T18:04:34;9.77;;;7.22;;
12212;SDS011;6169;44.158;22.788;2023-05-19T18:09:37;10.38;;;6.90;;
12212;SDS011;6169;44.158;22.788;2023-05-19T18:14:46;8.63;;;6.63;;
12212;SDS011;6169;44.158;22.788;2023-05-19T18:19:49;7.63;;;6.28;;
12212;SDS011;6169;44.158;22.788;2023-05-19T18:24:53;8.13;;;6.88;;
12212;SDS011;6169;44.158;22.788;2023-05-19T18:29:58;12.40;;;7.85;;
12212;SDS011;6169;44.158;22.788;2023-05-19T18:35:00;10.18;;;6.88;;
12212;SDS011;6169;44.158;22.788;2023-05-19T18:40:03;9.77;;;6.70;;
12212;SDS011;6169;44.158;22.788;2023-05-19T18:45:08;14.00;;;8.18;;
12212;SDS011;6169;44.158;22.788;2023-05-19T18:50:11;18.27;;;7.78;;
12212;SDS011;6169;44.158;22.788;2023-05-19T18:55:14;11.05;;;7.30;;
12212;SDS011;6169;44.158;22.788;2023-05-19T19:00:18;17.65;;;11.32;;
12212;SDS011;6169;44.158;22.788;2023-05-19T19:05:21;25.48;;;14.18;;
12212;SDS011;6169;44.158;22.788;2023-05-19T19:10:24;26.48;;;15.18;;
12212;SDS011;6169;44.158;22.788;2023-05-19T19:15:28;27.27;;;16.17;;
12212;SDS011;6169;44.158;22.788;2023-05-19T19:20:30;25.10;;;14.43;;
12212;SDS011;6169;44.158;22.788;2023-05-19T19:25:33;48.00;;;20.15;;
12212;SDS011;6169;44.158;22.788;2023-05-19T19:30:37;81.13;;;30.35;;
12212;SDS011;6169;44.158;22.788;2023-05-19T19:35:39;58.35;;;21.45;;
12212;SDS011;6169;44.158;22.788;2023-05-19T19:40:42;23.75;;;12.88;;
12212;SDS011;6169;44.158;22.788;2023-05-19T19:45:46;17.23;;;12.25;;
12212;SDS011;6169;44.158;22.788;2023-05-19T19:50:52;12.85;;;7.70;;
12212;SDS011;6169;44.158;22.788;2023-05-19T19:55:54;10.05;;;7.47;;
12212;SDS011;6169;44.158;22.788;2023-05-19T20:01:00;10.55;;;6.78;;
12212;SDS011;6169;44.158;22.788;2023-05-19T20:06:03;8.02;;;6.85;;
12212;SDS011;6169;44.158;22.788;2023-05-19T20:11:06;9.45;;;8.45;;
12212;SDS011;6169;44.158;22.788;2023-05-19T20:16:10;10.48;;;8.00;;
12212;SDS011;6169;44.158;22.788;2023-05-19T20:21:12;12.75;;;9.10;;
12212;SDS011;6169;44.158;22.788;2023-05-19T20:26:15;9.68;;;7.60;;
12212;SDS011;6169;44.158;22.788;2023-05-19T20:31:19;8.43;;;6.60;;
12212;SDS011;6169;44.158;22.788;2023-05-19T20:36:22;9.20;;;7.22;;
12212;SDS011;6169;44.158;22.788;2023-05-19T20:41:25;10.00;;;6.65;;
12212;SDS011;6169;44.158;22.788;2023-05-19T20:46:28;8.98;;;6.80;;
12212;SDS011;6169;44.158;22.788;2023-05-19T20:51:31;6.90;;;4.85;;
12212;SDS011;6169;44.158;22.788;2023-05-19T20:56:33;7.20;;;5.43;;
12212;SDS011;6169;44.158;22.788;2023-05-19T21:01:37;11.10;;;5.50;;
12212;SDS011;6169;44.158;22.788;2023-05-19T21:06:39;9.07;;;5.05;;
12212;SDS011;6169;44.158;22.788;2023-05-19T21:11:41;8.20;;;5.45;;
12212;SDS011;6169;44.158;22.788;2023-05-19T21:16:47;6.35;;;5.25;;
12212;SDS011;6169;44.158;22.788;2023-05-19T21:21:50;8.60;;;5.88;;
12212;SDS011;6169;44.158;22.788;2023-05-19T21:26:52;8.65;;;6.38;;
12212;SDS011;6169;44.158;22.788;2023-05-19T21:31:55;6.65;;;5.32;;
12212;SDS011;6169;44.158;22.788;2023-05-19T21:36:58;6.53;;;4.80;;
12212;SDS011;6169;44.158;22.788;2023-05-19T21:42:01;7.15;;;6.15;;
12212;SDS011;6169;44.158;22.788;2023-05-19T21:47:04;8.52;;;7.03;;
12212;SDS011;6169;44.158;22.788;2023-05-19T21:52:07;8.15;;;6.20;;
12212;SDS011;6169;44.158;22.788;2023-05-19T21:57:10;8.73;;;5.80;;
12212;SDS011;6169;44.158;22.788;2023-05-19T22:02:13;9.05;;;6.93;;
12212;SDS011;6169;44.158;22.788;2023-05-19T22:07:16;15.65;;;7.28;;
12212;SDS011;6169;44.158;22.788;2023-05-19T22:12:25;11.07;;;8.13;;
12212;SDS011;6169;44.158;22.788;2023-05-19T22:17:29;10.32;;;7.13;;
12212;SDS011;6169;44.158;22.788;2023-05-19T22:22:31;8.38;;;6.35;;
12212;SDS011;6169;44.158;22.788;2023-05-19T22:27:33;8.95;;;7.47;;
12212;SDS011;6169;44.158;22.788;2023-05-19T22:32:37;11.35;;;7.60;;
12212;SDS011;6169;44.158;22.788;2023-05-19T22:37:39;8.70;;;6.43;;
12212;SDS011;6169;44.158;22.788;2023-05-19T22:42:41;12.02;;;7.35;;
12212;SDS011;6169;44.158;22.788;2023-05-19T22:47:45;8.18;;;7.10;;
12212;SDS011;6169;44.158;22.788;2023-05-19T22:52:47;9.65;;;7.03;;
12212;SDS011;6169;44.158;22.788;2023-05-19T22:57:49;15.05;;;7.63;;
12212;SDS011;6169;44.158;22.788;2023-05-19T23:02:53;9.10;;;6.68;;
12212;SDS011;6169;44.158;22.788;2023-05-19T23:07:57;10.27;;;7.75;;
12212;SDS011;6169;44.158;22.788;2023-05-19T23:12:59;14.88;;;8.90;;
12212;SDS011;6169;44.158;22.788;2023-05-19T23:18:03;12.57;;;8.00;;
12212;SDS011;6169;44.158;22.788;2023-05-19T23:23:07;11.68;;;8.80;;
12212;SDS011;6169;44.158;22.788;2023-05-19T23:28:09;16.30;;;9.48;;
12212;SDS011;6169;44.158;22.788;2023-05-19T23:33:13;19.27;;;8.73;;
12212;SDS011;6169;44.158;22.788;2023-05-19T23:38:15;12.25;;;8.35;;
12212;SDS011;6169;44.158;22.788;2023-05-19T23:43:18;11.05;;;8.70;;
12212;SDS011;6169;44.158;22.788;2023-05-19T23:48:21;13.90;;;9.07;;
12212;SDS011;6169;44.158;22.788;2023-05-19T23:53:24;13.95;;;9.23;;
12212;SDS011;6169;44.158;22.788;2023-05-19T23:58:26;10.20;;;8.15;;
